Time;durP1;ratioP1;P1;durP2;ratioP2;P2;SDS_P1;SDS_P2;PMS_P1;PMS_P2;Temp;Humidity;BMP_temperature;BMP_pressure;BME280_temperature;BME280_humidity;BME280_pressure;Samples;Min_cycle;Max_cycle;Signal;HPM_P1;HPM_P2
2022/05/09 00:02:16;;;;;;;1.30;0.80;;;;;;;23.27;29.82;99570.72;5155935;27;20031;-70
2022/05/09 00:04:41;;;;;;;1.27;0.80;;;;;;;23.22;29.92;99573.19;5155963;27;20033;-70
2022/05/09 00:07:07;;;;;;;1.95;0.90;;;;;;;23.21;30.06;99576.94;5156426;27;20111;-70
2022/05/09 00:09:33;;;;;;;1.45;0.80;;;;;;;23.17;30.06;99581.88;5148183;27;20030;-70
2022/05/09 00:11:59;;;;;;;3.95;1.00;;;;;;;23.10;29.87;99584.56;5153816;27;20594;-70
2022/05/09 00:14:26;;;;;;;1.52;0.70;;;;;;;23.04;30.09;99588.06;5155341;27;20074;-70
2022/05/09 00:16:52;;;;;;;1.95;0.90;;;;;;;23.04;29.99;99590.75;5157016;27;20399;-70
2022/05/09 00:19:20;;;;;;;1.13;0.63;;;;;;;23.00;30.29;99586.81;5156006;27;20114;-70
2022/05/09 00:21:48;;;;;;;1.65;1.05;;;;;;;23.00;30.23;99584.13;5156479;27;20030;-70
2022/05/09 00:24:17;;;;;;;2.17;0.82;;;;;;;23.04;30.04;99571.84;5155760;27;20038;-70
2022/05/09 00:26:46;;;;;;;1.38;0.80;;;;;;;23.03;30.05;99575.59;5143648;27;20058;-70
2022/05/09 00:29:14;;;;;;;1.17;0.90;;;;;;;23.02;30.06;99580.16;5155585;27;20091;-70
2022/05/09 00:31:43;;;;;;;2.00;0.90;;;;;;;23.05;29.93;99580.81;5152194;27;20038;-69
2022/05/09 00:34:16;;;;;;;2.05;0.80;;;;;;;23.08;29.91;99578.53;5152733;27;20049;-70
2022/05/09 00:36:42;;;;;;;2.78;1.10;;;;;;;23.08;29.98;99583.09;5141252;27;20405;-70
2022/05/09 00:39:07;;;;;;;1.23;0.75;;;;;;;23.03;30.09;99572.88;5156306;27;20030;-70
2022/05/09 00:41:40;;;;;;;3.60;1.10;;;;;;;23.06;29.90;99574.38;5149545;27;20035;-70
2022/05/09 00:44:17;;;;;;;1.90;1.00;;;;;;;23.08;29.81;99581.22;5146591;27;20038;-69
2022/05/09 00:46:48;;;;;;;1.92;0.98;;;;;;;23.05;29.99;99575.41;5154379;27;20370;-70
2022/05/09 00:49:23;;;;;;;0.93;0.65;;;;;;;23.04;30.11;99581.84;5155293;27;20063;-70
2022/05/09 00:52:01;;;;;;;2.50;0.70;;;;;;;23.01;30.18;99581.19;5154562;27;20058;-70
2022/05/09 00:54:33;;;;;;;1.52;0.70;;;;;;;23.00;30.17;99576.00;5155882;27;20039;-70
2022/05/09 00:57:09;;;;;;;2.08;1.02;;;;;;;22.97;29.95;99577.22;5150520;27;20494;-70
2022/05/09 00:59:36;;;;;;;0.73;0.63;;;;;;;22.98;29.94;99584.28;5155651;27;20038;-69
2022/05/09 01:02:04;;;;;;;1.25;0.90;;;;;;;23.01;30.05;99583.06;5153866;27;20031;-70
2022/05/09 01:04:38;;;;;;;1.42;0.93;;;;;;;23.04;29.96;99581.84;5154854;27;20485;-69
2022/05/09 01:07:04;;;;;;;3.22;0.95;;;;;;;23.06;29.84;99585.16;5155445;27;20023;-70
2022/05/09 01:09:29;;;;;;;1.95;1.15;;;;;;;23.05;29.98;99584.31;5155748;27;20074;-70
2022/05/09 01:11:55;;;;;;;1.77;0.90;;;;;;;23.00;29.97;99587.63;5154501;27;20069;-69
2022/05/09 01:14:24;;;;;;;1.05;0.70;;;;;;;22.95;30.03;99586.56;5146955;27;20042;-69
2022/05/09 01:16:49;;;;;;;1.50;0.80;;;;;;;22.89;30.14;99579.25;5135013;27;20039;-69
2022/05/09 01:19:40;;;;;;;2.03;1.10;;;;;;;22.83;30.40;99587.16;5149454;27;20106;-69
2022/05/09 01:22:37;;;;;;;2.08;1.20;;;;;;;22.79;30.07;99585.06;5126950;27;20532;-69
2022/05/09 01:25:06;;;;;;;3.13;1.20;;;;;;;22.79;30.19;99579.66;5140194;27;20045;-70
2022/05/09 01:27:37;;;;;;;1.73;1.00;;;;;;;22.80;30.16;99582.16;5154679;27;20038;-70
2022/05/09 01:30:12;;;;;;;;;;;;;;;22.74;30.26;99580.22;5155948;27;20043;-70
2022/05/09 01:32:57;;;;;;;3.05;1.50;;;;;;;22.76;30.29;99585.44;5154791;27;20404;-70
2022/05/09 01:35:42;;;;;;;2.75;0.90;;;;;;;22.75;30.33;99578.38;5135977;27;20030;-69
2022/05/09 01:38:13;;;;;;;1.35;0.95;;;;;;;22.71;30.10;99583.34;5154766;27;20442;-69
2022/05/09 01:40:39;;;;;;;1.88;0.80;;;;;;;22.66;30.32;99581.22;5141274;27;20099;-69
2022/05/09 01:43:04;;;;;;;1.45;1.08;;;;;;;22.62;30.26;99582.69;5145451;27;20034;-69
2022/05/09 01:45:30;;;;;;;1.63;1.00;;;;;;;22.62;30.33;99579.13;5153296;27;20027;-69
2022/05/09 01:50:39;;;;;;;1.45;1.17;;;;;;;22.66;30.07;99589.31;5148443;27;20092;-69
2022/05/09 01:53:05;;;;;;;5.03;0.93;;;;;;;22.70;29.89;99587.09;5145139;27;20055;-69
2022/05/09 01:55:30;;;;;;;1.42;0.88;;;;;;;22.67;30.02;99592.88;5153505;27;20468;-69
2022/05/09 01:57:56;;;;;;;1.45;0.90;;;;;;;22.63;30.06;99602.38;5153404;27;20034;-69
2022/05/09 02:00:22;;;;;;;1.80;1.00;;;;;;;22.59;30.25;99601.09;5144781;27;20091;-69
2022/05/09 02:02:48;;;;;;;1.58;1.00;;;;;;;22.55;30.15;99606.91;5134036;27;20022;-68
2022/05/09 02:05:13;;;;;;;1.35;0.98;;;;;;;22.50;30.17;99601.28;5146368;27;20034;-69
2022/05/09 02:07:39;;;;;;;1.45;0.80;;;;;;;22.52;30.15;99601.91;5154086;27;20047;-69
2022/05/09 02:10:04;;;;;;;1.90;1.10;;;;;;;22.51;30.02;99607.47;5142035;27;20512;-68
2022/05/09 02:12:30;;;;;;;1.80;1.00;;;;;;;22.50;30.10;99612.06;5154075;27;20031;-69
2022/05/09 02:14:56;;;;;;;1.80;0.82;;;;;;;22.48;30.12;99605.19;5152030;27;20038;-70
2022/05/09 02:17:21;;;;;;;1.17;0.77;;;;;;;22.46;30.12;99600.00;5152508;27;20134;-69
2022/05/09 02:19:47;;;;;;;1.65;1.13;;;;;;;22.45;30.05;99589.41;5154504;27;20038;-69
2022/05/09 02:22:14;;;;;;;2.55;1.02;;;;;;;22.43;29.99;99600.38;5153496;27;20057;-68
2022/05/09 02:24:40;;;;;;;2.15;1.08;;;;;;;22.40;30.15;99593.50;5151913;27;20058;-69
2022/05/09 02:27:07;;;;;;;1.17;0.90;;;;;;;22.42;29.90;99596.03;5152376;27;20083;-69
2022/05/09 02:29:33;;;;;;;3.58;0.88;;;;;;;22.42;29.94;99587.97;5149691;27;20030;-69
2022/05/09 02:32:00;;;;;;;2.13;1.25;;;;;;;22.44;29.96;99593.13;5134403;27;20061;-69
2022/05/09 02:34:25;;;;;;;2.67;1.13;;;;;;;22.42;30.00;99589.81;5133427;27;20541;-69
2022/05/09 02:36:51;;;;;;;1.05;0.63;;;;;;;22.41;29.95;99586.25;5138833;27;20167;-70
2022/05/09 02:39:16;;;;;;;1.20;0.80;;;;;;;22.40;29.82;99573.81;5153904;27;20042;-69
2022/05/09 02:41:42;;;;;;;2.55;1.05;;;;;;;22.42;29.80;99568.22;5140645;27;20038;-69
2022/05/09 02:44:08;;;;;;;1.30;0.90;;;;;;;22.42;29.70;99582.56;5153495;27;20480;-69
2022/05/09 02:46:34;;;;;;;1.67;0.85;;;;;;;22.40;29.77;99576.50;5143091;27;20034;-69
2022/05/09 02:49:00;;;;;;;2.17;1.35;;;;;;;22.40;29.65;99581.91;5153381;27;20031;-69
2022/05/09 02:51:26;;;;;;;2.33;1.00;;;;;;;22.41;29.71;99580.88;5140215;27;20081;-69
2022/05/09 02:53:52;;;;;;;1.23;0.88;;;;;;;22.40;29.63;99587.28;5133297;28;20027;-69
2022/05/09 02:56:17;;;;;;;1.90;0.80;;;;;;;22.38;29.64;99592.03;5133611;28;20034;-69
2022/05/09 02:58:43;;;;;;;1.70;1.02;;;;;;;22.38;29.68;99594.72;5150058;27;20034;-69
2022/05/09 03:01:08;;;;;;;1.77;1.08;;;;;;;22.40;29.59;99609.66;5153926;27;20045;-69
2022/05/09 03:06:18;;;;;;;3.65;0.85;;;;;;;22.43;29.45;99602.25;5137092;27;20495;-69
2022/05/09 03:08:44;;;;;;;1.40;0.90;;;;;;;22.42;29.46;99593.34;5153389;27;20058;-69
2022/05/09 03:11:10;;;;;;;2.97;0.70;;;;;;;22.42;29.44;99589.81;5155949;27;20041;-69
2022/05/09 03:13:36;;;;;;;6.60;1.00;;;;;;;22.42;29.45;99587.09;5149682;27;20034;-69
2022/05/09 03:16:02;;;;;;;2.15;0.70;;;;;;;22.38;29.47;99583.94;5158056;27;20033;-69
2022/05/09 03:18:28;;;;;;;3.75;1.00;;;;;;;22.37;29.71;99588.50;5141997;27;20027;-70
2022/05/09 03:20:54;;;;;;;0.60;0.60;;;;;;;22.40;29.52;99598.06;5155877;27;20448;-69
2022/05/09 03:23:20;;;;;;;6.55;1.10;;;;;;;22.41;29.43;99597.03;5157807;27;20027;-70
2022/05/09 03:25:46;;;;;;;1.30;0.70;;;;;;;22.42;29.63;99604.13;5158370;27;20436;-69
2022/05/09 03:28:18;;;;;;;1.92;1.10;;;;;;;22.40;29.44;99598.06;5156983;27;20118;-69
2022/05/09 03:30:45;;;;;;;1.45;0.70;;;;;;;22.39;29.53;99612.56;5156404;27;20042;-69
2022/05/09 03:33:11;;;;;;;1.83;0.85;;;;;;;22.38;29.43;99611.72;5156652;27;20041;-69
2022/05/09 03:35:38;;;;;;;1.60;0.93;;;;;;;22.40;29.25;99608.84;5158130;27;20477;-70
2022/05/09 03:38:04;;;;;;;1.55;1.00;;;;;;;22.43;29.33;99602.25;5157103;27;20489;-69
2022/05/09 03:40:29;;;;;;;1.23;0.52;;;;;;;22.41;29.34;99605.13;5156895;27;20031;-70
2022/05/09 03:42:56;;;;;;;1.27;0.70;;;;;;;22.38;29.52;99600.13;5157255;27;20103;-70
2022/05/09 03:45:22;;;;;;;2.97;0.98;;;;;;;22.37;29.50;99604.66;5147580;27;20035;-69
2022/05/09 03:47:48;;;;;;;2.90;1.05;;;;;;;22.34;29.23;99604.22;5156044;27;20035;-70
2022/05/09 03:50:14;;;;;;;1.00;0.73;;;;;;;22.33;29.53;99598.03;5156921;27;20026;-70
2022/05/09 03:52:39;;;;;;;0.93;0.70;;;;;;;22.35;29.35;99609.41;5146647;27;20109;-70
2022/05/09 03:55:05;;;;;;;1.45;0.95;;;;;;;22.31;29.40;99608.16;5136739;27;20493;-69
2022/05/09 03:57:31;;;;;;;4.82;1.05;;;;;;;22.31;29.28;99616.25;5143233;27;20043;-69
2022/05/09 04:00:06;;;;;;;1.00;0.75;;;;;;;22.30;29.30;99605.66;5156465;27;20086;-69
2022/05/09 04:02:32;;;;;;;1.27;0.52;;;;;;;22.30;29.24;99608.34;5156747;27;20039;-69
2022/05/09 04:04:57;;;;;;;1.52;1.02;;;;;;;22.30;29.22;99608.34;5156677;27;20035;-69
2022/05/09 04:07:23;;;;;;;1.40;0.70;;;;;;;22.28;29.28;99613.94;5154289;27;20082;-69
2022/05/09 04:09:48;;;;;;;2.03;1.10;;;;;;;22.27;29.36;99609.56;5136347;27;20031;-69
2022/05/09 04:12:14;;;;;;;3.47;0.95;;;;;;;22.29;29.16;99620.16;5144346;27;20042;-69
2022/05/09 04:17:24;;;;;;;1.13;0.57;;;;;;;22.35;29.10;99620.19;5156015;27;20082;-68
2022/05/09 04:19:50;;;;;;;1.73;0.80;;;;;;;22.41;29.00;99629.38;5135837;27;20027;-69
2022/05/09 04:22:15;;;;;;;1.65;0.50;;;;;;;22.45;28.98;99619.88;5145743;27;20037;-69
2022/05/09 04:24:41;;;;;;;1.48;0.85;;;;;;;22.51;28.79;99623.66;5155738;27;20033;-69
2022/05/09 04:27:06;;;;;;;2.47;0.90;;;;;;;22.60;28.87;99625.19;5156426;27;20038;-69
2022/05/09 04:29:32;;;;;;;1.08;0.80;;;;;;;22.65;28.94;99624.59;5156058;27;20030;-69
2022/05/09 04:31:58;;;;;;;4.13;0.88;;;;;;;22.73;28.71;99631.69;5155906;27;20245;-69
2022/05/09 04:34:23;;;;;;;1.92;0.88;;;;;;;22.82;28.63;99627.78;5155782;27;20502;-69
2022/05/09 04:36:49;;;;;;;1.60;0.80;;;;;;;22.88;28.30;99634.25;5154990;27;20560;-69
2022/05/09 04:39:16;;;;;;;1.10;0.60;;;;;;;22.97;28.36;99633.06;5156255;27;20041;-69
2022/05/09 04:41:42;;;;;;;4.22;0.73;;;;;;;23.04;28.47;99636.63;5155078;27;20162;-69
2022/05/09 04:44:08;;;;;;;1.35;0.73;;;;;;;23.10;28.12;99637.69;5155184;27;20493;-69
2022/05/09 04:46:34;;;;;;;3.50;0.80;;;;;;;23.15;27.89;99627.97;5147651;27;20111;-69
2022/05/09 04:49:00;;;;;;;0.70;0.50;;;;;;;23.26;28.12;99628.47;5135688;27;20027;-69
2022/05/09 04:51:25;;;;;;;1.95;0.65;;;;;;;23.38;27.86;99636.81;5135216;27;20063;-69
2022/05/09 04:53:51;;;;;;;1.23;0.70;;;;;;;23.46;27.69;99634.72;5152435;27;20121;-69
2022/05/09 04:56:17;;;;;;;1.48;0.60;;;;;;;23.57;27.59;99646.81;5155829;27;20105;-69
2022/05/09 04:58:43;;;;;;;2.63;0.80;;;;;;;23.61;27.60;99641.84;5153393;27;20047;-70
2022/05/09 05:01:09;;;;;;;1.02;0.60;;;;;;;23.61;27.45;99645.38;5135520;27;20087;-69
2022/05/09 05:03:35;;;;;;;0.95;0.50;;;;;;;23.63;27.29;99639.78;5152289;27;20129;-69
2022/05/09 05:06:01;;;;;;;0.88;0.60;;;;;;;23.64;27.27;99646.03;5135937;27;20113;-70
2022/05/09 05:08:30;;;;;;;2.70;0.90;;;;;;;23.60;27.24;99635.63;5155602;27;20058;-70
2022/05/09 05:10:56;;;;;;;1.90;0.80;;;;;;;23.59;27.34;99638.53;5155643;27;20034;-70
2022/05/09 05:13:22;;;;;;;3.85;0.70;;;;;;;23.58;27.17;99639.56;5156207;27;20090;-70
2022/05/09 05:15:48;;;;;;;1.77;0.77;;;;;;;23.58;27.42;99642.28;5153947;27;20070;-70
2022/05/09 05:18:26;;;;;;;2.30;0.70;;;;;;;23.56;27.45;99644.34;5151250;27;20079;-70
2022/05/09 05:20:51;;;;;;;1.73;1.00;;;;;;;23.53;27.34;99650.13;5156043;27;20045;-69
2022/05/09 05:23:18;;;;;;;2.67;0.70;;;;;;;23.52;27.67;99645.78;5154743;27;20034;-69
2022/05/09 05:25:45;;;;;;;2.78;0.80;;;;;;;23.49;27.62;99647.03;5155198;27;20035;-69
2022/05/09 05:28:12;;;;;;;2.53;0.82;;;;;;;23.46;27.64;99645.53;5153329;27;20035;-69
2022/05/09 05:30:38;;;;;;;3.33;1.52;;;;;;;23.45;27.45;99643.88;5148517;27;20117;-69
2022/05/09 05:33:04;;;;;;;3.67;0.90;;;;;;;23.46;27.34;99644.72;5139817;27;20134;-69
2022/05/09 05:35:31;;;;;;;1.30;0.75;;;;;;;23.46;27.41;99650.13;5134772;27;20039;-69
2022/05/09 05:37:56;;;;;;;1.52;0.73;;;;;;;23.46;27.53;99656.34;5146601;27;20503;-69
2022/05/09 05:40:22;;;;;;;1.30;0.80;;;;;;;23.42;27.55;99657.81;5154783;27;20066;-69
2022/05/09 05:42:48;;;;;;;1.15;0.90;;;;;;;23.39;27.46;99655.50;5143170;27;20062;-70
2022/05/09 05:45:16;;;;;;;2.10;1.17;;;;;;;23.36;27.31;99661.28;5140124;27;20094;-69
2022/05/09 05:47:42;;;;;;;1.77;0.80;;;;;;;23.39;27.56;99660.91;5154438;27;20027;-69
2022/05/09 05:50:10;;;;;;;1.85;0.82;;;;;;;23.40;27.48;99667.97;5152092;27;20034;-69
2022/05/09 05:52:36;;;;;;;0.93;0.88;;;;;;;23.46;27.32;99671.72;5134700;27;20055;-68
2022/05/09 05:55:01;;;;;;;1.30;0.70;;;;;;;23.49;27.34;99675.88;5134292;27;20035;-68
2022/05/09 05:57:30;;;;;;;1.95;0.60;;;;;;;23.49;27.08;99671.31;5140374;27;20087;-68
2022/05/09 05:59:59;;;;;;;2.33;0.65;;;;;;;23.50;27.14;99662.19;5153678;27;20114;-68
2022/05/09 06:02:26;;;;;;;1.50;0.68;;;;;;;23.51;27.00;99671.97;5154450;27;20045;-68
2022/05/09 06:04:52;;;;;;;1.20;0.70;;;;;;;23.46;26.89;99672.53;5154794;27;20033;-68
2022/05/09 06:07:19;;;;;;;1.40;0.73;;;;;;;23.46;26.83;99672.53;5154036;27;20126;-68
2022/05/09 06:09:46;;;;;;;2.17;0.80;;;;;;;23.44;27.07;99663.84;5153989;27;20114;-68
2022/05/09 06:12:14;;;;;;;1.85;0.95;;;;;;;23.45;26.95;99670.06;5153771;27;20539;-68
2022/05/09 06:14:40;;;;;;;1.73;0.90;;;;;;;23.47;27.07;99674.22;5153766;27;20030;-68
2022/05/09 06:17:07;;;;;;;2.15;1.00;;;;;;;23.46;26.89;99672.53;5153730;27;20121;-69
2022/05/09 06:19:33;;;;;;;4.65;1.30;;;;;;;23.52;27.04;99676.31;5153550;27;20105;-69
2022/05/09 06:21:59;;;;;;;2.60;0.82;;;;;;;23.55;27.04;99677.78;5154105;27;20027;-69
2022/05/09 06:24:26;;;;;;;2.15;1.35;;;;;;;23.55;27.08;99669.69;5153500;27;20105;-69
2022/05/09 06:26:52;;;;;;;3.58;0.88;;;;;;;23.57;27.26;99684.63;5152550;27;20023;-69
2022/05/09 06:29:18;;;;;;;1.58;0.90;;;;;;;23.55;27.23;99680.47;5153752;27;20054;-69
2022/05/09 06:31:44;;;;;;;3.28;0.85;;;;;;;23.51;27.11;99684.59;5153622;27;20386;-69
2022/05/09 06:34:13;;;;;;;1.23;0.55;;;;;;;23.48;27.02;99688.56;5154032;27;20081;-68
2022/05/09 06:36:40;;;;;;;1.58;0.93;;;;;;;23.47;27.03;99695.00;5153602;27;20058;-69
2022/05/09 06:39:08;;;;;;;2.42;0.80;;;;;;;23.49;27.01;99692.06;5153094;27;20031;-70
2022/05/09 06:41:33;;;;;;;1.63;1.00;;;;;;;23.45;26.97;99691.66;5152437;27;20061;-70
2022/05/09 06:43:59;;;;;;;1.17;0.93;;;;;;;23.45;26.90;99697.06;5153091;27;20389;-69
2022/05/09 06:46:25;;;;;;;3.58;1.05;;;;;;;23.43;26.85;99688.31;5146069;27;20328;-69
2022/05/09 06:48:51;;;;;;;3.97;0.93;;;;;;;23.43;26.58;99693.72;5137701;27;20027;-70
2022/05/09 06:51:17;;;;;;;3.25;1.20;;;;;;;23.41;27.02;99699.34;5137431;27;20051;-70
2022/05/09 06:53:44;;;;;;;3.40;0.70;;;;;;;23.41;26.80;99699.34;5137472;27;20076;-69
2022/05/09 06:56:10;;;;;;;1.77;0.88;;;;;;;23.38;26.69;99701.63;5150153;27;20062;-71
2022/05/09 06:58:36;;;;;;;2.40;0.90;;;;;;;23.35;27.06;99700.13;5154594;27;20121;-70
2022/05/09 07:01:12;;;;;;;1.25;0.80;;;;;;;23.36;26.82;99704.50;5137395;27;20039;-70
2022/05/09 07:03:37;;;;;;;1.77;1.13;;;;;;;23.37;26.97;99700.75;5137627;27;20031;-70
2022/05/09 07:06:03;;;;;;;2.10;0.73;;;;;;;23.36;26.35;99704.50;5137490;27;20474;-72
2022/05/09 07:08:32;;;;;;;2.28;1.10;;;;;;;23.31;26.26;99701.56;5145130;27;20126;-71
2022/05/09 07:10:57;;;;;;;2.70;1.15;;;;;;;23.25;26.47;99705.88;5156767;27;20038;-71
2022/05/09 07:13:23;;;;;;;4.22;0.93;;;;;;;23.24;26.47;99693.41;5158452;27;20035;-71
2022/05/09 07:15:49;;;;;;;3.95;0.80;;;;;;;23.20;26.38;99702.09;5158188;27;20030;-71
2022/05/09 07:18:14;;;;;;;1.55;0.80;;;;;;;23.15;26.24;99703.56;5156670;27;20042;-69
2022/05/09 07:20:40;;;;;;;4.18;1.20;;;;;;;23.09;25.79;99698.94;5158130;27;20087;-71
2022/05/09 07:23:11;;;;;;;2.33;0.82;;;;;;;23.04;26.07;99689.78;5157791;27;20034;-70
2022/05/09 07:25:38;;;;;;;1.08;0.60;;;;;;;23.04;25.76;99681.69;5158366;27;20033;-72
2022/05/09 07:28:05;;;;;;;2.80;1.00;;;;;;;23.02;25.99;99679.16;5157195;27;20106;-71
2022/05/09 07:30:31;;;;;;;1.90;1.02;;;;;;;23.05;26.44;99678.78;5157320;27;20098;-70
2022/05/09 07:32:56;;;;;;;1.40;0.90;;;;;;;23.13;26.50;99688.56;5156784;27;20370;-71
2022/05/09 07:35:23;;;;;;;2.45;0.80;;;;;;;23.17;26.55;99695.25;5157694;27;20041;-70
2022/05/09 07:37:49;;;;;;;1.85;0.55;;;;;;;23.19;26.52;99690.47;5157285;27;20027;-71
2022/05/09 07:40:17;;;;;;;1.65;0.70;;;;;;;23.24;26.42;99706.09;5157578;27;20039;-71
2022/05/09 07:42:44;;;;;;;1.13;0.68;;;;;;;23.22;26.08;99691.97;5156314;27;20035;-70
2022/05/09 07:45:13;;;;;;;1.38;0.57;;;;;;;23.24;26.01;99701.53;5136925;27;20058;-71
2022/05/09 07:47:39;;;;;;;1.00;0.50;;;;;;;23.20;26.22;99708.38;5136277;27;20087;-71
2022/05/09 07:50:06;;;;;;;3.10;0.70;;;;;;;23.17;25.85;99712.25;5138358;27;20052;-71
2022/05/09 07:52:32;;;;;;;1.40;0.60;;;;;;;23.15;25.75;99703.56;5155986;27;20058;-71
2022/05/09 07:54:58;;;;;;;3.13;0.50;;;;;;;23.10;25.97;99708.69;5157664;27;20079;-71
2022/05/09 07:57:23;;;;;;;1.55;0.60;;;;;;;23.08;26.26;99718.84;5155538;27;20041;-71
2022/05/09 07:59:49;;;;;;;4.55;0.90;;;;;;;23.05;26.21;99713.03;5157675;27;20046;-71
2022/05/09 08:02:15;;;;;;;2.70;0.70;;;;;;;23.07;26.07;99703.69;5155964;27;20038;-71
2022/05/09 08:04:40;;;;;;;1.70;0.52;;;;;;;23.03;25.43;99699.72;5157355;27;20501;-71
2022/05/09 08:07:06;;;;;;;1.42;0.70;;;;;;;22.96;26.16;99696.97;5153336;27;20075;-71
2022/05/09 08:09:33;;;;;;;1.60;0.63;;;;;;;22.95;26.11;99691.78;5136536;27;20034;-72
2022/05/09 08:12:00;;;;;;;3.30;1.75;;;;;;;22.94;26.20;99685.56;5141177;27;20056;-71
2022/05/09 08:14:26;;;;;;;2.22;0.93;;;;;;;22.96;26.11;99682.66;5156033;27;20035;-71
2022/05/09 08:16:52;;;;;;;2.63;0.60;;;;;;;22.96;26.10;99686.19;5156627;27;20033;-71
2022/05/09 08:19:18;;;;;;;4.05;0.85;;;;;;;22.96;25.94;99704.25;5137970;27;20435;-71
2022/05/09 08:21:49;;;;;;;1.10;0.65;;;;;;;22.92;25.96;99697.59;5156644;27;20068;-70
2022/05/09 08:24:15;;;;;;;1.35;0.68;;;;;;;22.94;26.10;99700.91;5155740;27;20042;-70
2022/05/09 08:26:41;;;;;;;1.90;0.70;;;;;;;22.98;25.81;99702.19;5155288;27;20042;-71
2022/05/09 08:29:07;;;;;;;4.53;0.70;;;;;;;23.04;26.11;99711.38;5149241;27;20095;-70
2022/05/09 08:31:33;;;;;;;4.80;1.38;;;;;;;23.09;27.07;99709.72;5149400;27;20397;-70
2022/05/09 08:33:59;;;;;;;5.32;1.10;;;;;;;23.16;27.87;99699.78;5156228;27;20493;-71
2022/05/09 08:39:09;;;;;;;3.20;1.40;;;;;;;23.23;27.76;99720.63;5154742;27;20086;-70
2022/05/09 08:42:06;;;;;;;6.45;2.65;;;;;;;23.25;28.37;99718.56;5148669;27;20034;-71
2022/05/09 08:45:08;;;;;;;7.95;3.63;;;;;;;23.26;27.85;99715.66;5135881;27;20035;-70
2022/05/09 08:48:07;;;;;;;4.35;1.98;;;;;;;23.25;27.20;99724.78;5155094;27;20145;-70
2022/05/09 08:50:51;;;;;;;15.48;6.10;;;;;;;23.16;27.85;99742.97;5150181;27;20039;-69
2022/05/09 08:53:23;;;;;;;12.57;5.60;;;;;;;23.19;28.04;99749.00;5135182;27;20055;-71
2022/05/09 08:55:51;;;;;;;15.50;5.28;;;;;;;23.16;28.20;99744.84;5135189;27;20198;-71
2022/05/09 08:58:45;;;;;;;28.92;9.25;;;;;;;23.14;30.32;99755.84;5150475;27;20043;-71
2022/05/09 09:01:42;;;;;;;32.20;8.70;;;;;;;23.16;30.70;99748.38;5155109;27;20035;-71
2022/05/09 09:04:35;;;;;;;19.65;5.88;;;;;;;23.25;30.23;99748.25;5102457;27;20060;-71
2022/05/09 09:07:01;;;;;;;18.90;6.40;;;;;;;23.26;30.44;99747.22;5134904;27;20117;-71
2022/05/09 09:09:51;;;;;;;12.43;4.15;;;;;;;23.32;29.82;99749.13;5154884;27;20462;-70
2022/05/09 09:12:29;;;;;;;10.32;2.67;;;;;;;23.33;28.87;99745.38;5155426;27;20073;-70
2022/05/09 09:15:32;;;;;;;6.43;2.38;;;;;;;23.31;28.55;99748.28;5154859;27;20129;-71
2022/05/09 09:18:04;;;;;;;9.55;2.70;;;;;;;23.26;28.94;99749.94;5154332;27;20030;-71
2022/05/09 09:20:35;;;;;;;10.10;3.20;;;;;;;23.25;29.66;99745.56;5155723;27;20487;-71
2022/05/09 09:23:04;;;;;;;6.38;1.90;;;;;;;23.26;29.10;99737.25;5154697;27;20037;-71
2022/05/09 09:25:59;;;;;;;8.10;2.60;;;;;;;23.29;29.56;99739.56;5155153;27;20034;-71
2022/05/09 09:28:34;;;;;;;7.70;1.85;;;;;;;23.31;29.05;99739.34;5155219;27;20501;-71
2022/05/09 09:31:04;;;;;;;7.57;1.60;;;;;;;23.27;28.82;99738.09;5155304;27;20034;-69
2022/05/09 09:33:32;;;;;;;6.68;1.60;;;;;;;23.24;28.33;99749.28;5154191;27;20394;-71
2022/05/09 09:36:10;;;;;;;6.88;2.17;;;;;;;23.16;28.92;99742.16;5150924;27;20513;-70
2022/05/09 09:38:55;;;;;;;4.03;1.58;;;;;;;23.13;28.23;99754.19;5153180;27;20485;-70
2022/05/09 09:41:27;;;;;;;3.10;1.00;;;;;;;23.06;27.46;99742.50;5153334;27;20481;-71
2022/05/09 09:44:04;;;;;;;3.25;0.95;;;;;;;22.94;26.94;99747.59;5154735;27;20086;-70
2022/05/09 09:46:30;;;;;;;3.42;1.15;;;;;;;22.86;27.23;99751.31;5134491;27;20031;-71
2022/05/09 09:49:17;;;;;;;3.60;1.10;;;;;;;22.90;27.28;99756.28;5143148;27;20042;-71
2022/05/09 09:51:48;;;;;;;4.80;0.73;;;;;;;22.93;27.75;99754.06;5149308;27;20604;-71
2022/05/09 09:54:19;;;;;;;4.90;1.08;;;;;;;22.98;27.68;99745.38;5154360;27;20145;-72
2022/05/09 09:56:45;;;;;;;3.42;1.27;;;;;;;23.01;27.46;99748.50;5135211;27;20450;-70
2022/05/09 09:59:23;;;;;;;2.05;0.80;;;;;;;23.06;26.83;99757.88;5154565;27;20026;-70
2022/05/09 10:02:16;;;;;;;1.35;0.82;;;;;;;23.07;26.86;99746.06;5153297;27;20027;-70
2022/05/09 10:04:43;;;;;;;1.52;0.88;;;;;;;23.07;26.50;99748.75;5154668;27;20034;-70
2022/05/09 10:07:33;;;;;;;17.58;0.93;;;;;;;23.06;26.48;99766.78;5153560;27;20477;-70
2022/05/09 10:10:12;;;;;;;2.53;0.80;;;;;;;23.02;26.71;99773.59;5154564;27;20030;-71
2022/05/09 10:12:41;;;;;;;3.90;1.08;;;;;;;22.97;26.11;99778.78;5153352;27;20026;-70
2022/05/09 10:15:19;;;;;;;3.38;1.00;;;;;;;22.90;26.34;99780.56;5154585;27;20397;-69
2022/05/09 10:17:44;;;;;;;2.65;0.80;;;;;;;22.79;26.06;99788.19;5154378;27;20030;-69
2022/05/09 10:20:27;;;;;;;2.95;0.93;;;;;;;22.72;25.93;99784.59;5154598;27;20576;-68
2022/05/09 10:26:16;;;;;;;1.95;0.60;;;;;;;22.61;26.08;99796.75;5155192;27;20162;-69
2022/05/09 10:28:53;;;;;;;3.00;0.60;;;;;;;22.58;26.05;99807.91;5146865;27;20489;-71
2022/05/09 10:31:23;;;;;;;1.05;0.50;;;;;;;22.54;26.07;99818.25;5154485;27;20023;-70
2022/05/09 10:34:07;;;;;;;1.55;0.60;;;;;;;22.53;26.02;99831.91;5145065;27;20038;-69
2022/05/09 10:36:48;;;;;;;1.85;0.75;;;;;;;22.48;26.49;99816.31;5134064;27;20564;-70
2022/05/09 10:39:25;;;;;;;1.17;0.65;;;;;;;22.49;26.77;99809.91;5133421;27;20038;-71
2022/05/09 10:41:55;;;;;;;1.20;0.60;;;;;;;22.51;26.56;99807.84;5133462;27;20031;-71
2022/05/09 10:44:27;;;;;;;2.17;0.60;;;;;;;22.54;26.79;99801.22;5152716;27;20046;-71
2022/05/09 10:47:01;;;;;;;1.58;0.70;;;;;;;22.59;26.90;99795.25;5154240;27;20441;-68
2022/05/09 10:50:00;;;;;;;0.88;0.70;;;;;;;22.63;26.79;99792.00;5154036;27;20441;-71
2022/05/09 10:52:41;;;;;;;2.28;0.80;;;;;;;22.65;26.92;99799.88;5142981;27;20051;-71
2022/05/09 10:55:30;;;;;;;2.67;0.70;;;;;;;22.65;26.80;99805.28;5153834;27;20101;-70
2022/05/09 10:58:04;;;;;;;3.20;0.63;;;;;;;22.64;26.84;99812.56;5152957;27;20043;-70
2022/05/09 11:00:32;;;;;;;1.45;0.82;;;;;;;22.66;26.84;99801.56;5154301;27;20033;-71
2022/05/09 11:03:19;;;;;;;1.83;0.70;;;;;;;22.69;26.79;99812.78;5154122;27;20030;-71
2022/05/09 11:06:01;;;;;;;2.00;0.77;;;;;;;22.62;26.77;99816.44;5154294;27;20083;-70
2022/05/09 11:08:29;;;;;;;;;;;;;;;22.51;27.02;99836.66;5153291;27;20513;-71
2022/05/09 11:11:22;;;;;;;1.40;0.73;;;;;;;22.45;27.17;99846.34;5154271;27;20033;-71
2022/05/09 11:14:24;;;;;;;1.42;0.50;;;;;;;22.41;27.18;99858.53;5153871;27;20034;-71
2022/05/09 11:16:55;;;;;;;2.22;0.57;;;;;;;22.37;27.29;99862.63;5153602;27;20035;-71
2022/05/09 11:19:32;;;;;;;;;;;;;;;22.30;27.46;99864.41;5154333;27;20122;-71
2022/05/09 11:22:27;;;;;;;1.55;0.70;;;;;;;22.23;27.62;99865.19;5152181;27;19922;-71
2022/05/09 11:25:08;;;;;;;1.33;0.75;;;;;;;22.12;27.81;99862.97;5153726;27;20027;-71
2022/05/09 11:27:51;;;;;;;1.02;0.50;;;;;;;22.10;27.99;99859.63;5152631;27;20049;-70
2022/05/09 11:30:30;;;;;;;2.03;0.80;;;;;;;22.09;28.30;99853.41;5133069;27;20047;-70
2022/05/09 11:33:19;;;;;;;1.80;1.08;;;;;;;22.16;28.25;99850.78;5136519;27;20054;-69
2022/05/09 11:35:52;;;;;;;1.27;0.80;;;;;;;22.19;28.21;99846.91;5136746;27;20031;-71
2022/05/09 11:38:39;;;;;;;1.70;0.88;;;;;;;22.23;28.22;99851.72;5146103;27;20125;-69
2022/05/09 11:41:35;;;;;;;1.77;0.82;;;;;;;22.27;27.99;99844.06;5157879;27;20107;-69
2022/05/09 11:44:32;;;;;;;3.53;0.93;;;;;;;22.27;28.20;99840.56;5151517;27;20075;-69
2022/05/09 11:47:00;;;;;;;3.17;0.80;;;;;;;22.31;28.22;99839.97;5156511;27;20068;-70
2022/05/09 11:49:40;;;;;;;1.10;0.60;;;;;;;22.38;28.10;99853.53;5157037;27;20042;-69
2022/05/09 11:52:18;;;;;;;1.73;0.68;;;;;;;22.37;28.23;99847.28;5137617;27;20061;-70
2022/05/09 11:54:48;;;;;;;0.90;0.60;;;;;;;22.39;28.35;99853.31;5147832;27;20046;-69
2022/05/09 11:57:29;;;;;;;0.90;0.60;;;;;;;22.41;28.53;99845.06;5136585;27;20554;-69
2022/05/09 11:59:56;;;;;;;1.70;0.68;;;;;;;22.46;28.40;99849.91;5136729;27;20043;-70
2022/05/09 12:02:45;;;;;;;2.65;0.82;;;;;;;22.51;28.39;99853.69;5136419;27;20043;-70
2022/05/09 12:05:25;;;;;;;3.55;0.70;;;;;;;22.53;28.27;99857.03;5156558;27;20039;-69